Decoded Metar for FMCZ (DZAOUDZI in MAYOTTE ISLAND) (IATA:DZA) | Meteo·Mobile Aviation Weather
aviador You're here:

FMCZ Decoded Metar

DZAOUDZI in MAYOTTE ISLAND
Report Time2018-11-16 18:30:00
UTC Time2018-11-16 18:53:04
Flight Rules vfr VFR
Wind020° at 04 kt
W.Decomp.*RWY 34: 2.7 kt HW 3.0 kt RCW
W.Rank020° ranks 13
Current wind is below 020° avg. (5.5)
Visibility9999 m
Phenomena:N/A
Clouds:N/A
Expected CloudBase > 1,600 ft AGL from Temp-Dew spread
CeilingNone
Temp27°C (ISA +12)
Dew Point23°C (79% RH)
Heat Index29.6°C
QNH1015 hPa
Density Alt1,713 ft
Elevation23 ft
Report Wrong Elevation
Raw Report
FMCZ 161830Z AUTO 02004KT CAVOK 27/23 Q1015 NOSIG=

Extra information for FMCZ:More info

Metar Taf Metar & Taf Last 4 Metars F.Rules Stats Wind Profile Meteogram Temp Stats Airport Information Weather charts Add Link Nearby VenuesMetar ALERT Operation Metar Decoded Social comments